RJFE(METAR)
12/11 17:40
RJFE 110840Z 01008KT 9999 FEW007 BKN010 BKN015 12/12 Q1018 RMK
1ST007 5CU010 6CU015 A3008=
戻る
トップページへ戻る
IMOC Co,.Ltd.